Time;durP1;ratioP1;P1;durP2;ratioP2;P2;SDS_P1;SDS_P2;PMS_P1;PMS_P2;Temp;Humidity;BMP_temperature;BMP_pressure;BME280_temperature;BME280_humidity;BME280_pressure;Samples;Min_cycle;Max_cycle;Signal;HPM_P1;HPM_P2
2022/09/24 00:00:51;;;;;;;;;;;;;;;13.25;86.95;-25439.63;4997440;28;20381;-80
2022/09/24 00:03:18;;;;;;;;;;;;;;;13.26;87.46;-25439.78;5015539;28;19913;-81
2022/09/24 00:05:45;;;;;;;;;;;;;;;13.19;89.43;-25437.72;4998818;28;20514;-80
2022/09/24 00:08:13;;;;;;;;;;;;;;;13.25;89.30;-25439.47;4998423;28;19924;-82
2022/09/24 00:10:40;;;;;;;;;;;;;;;13.25;89.39;-25439.63;4998872;28;20014;-80
2022/09/24 00:13:08;;;;;;;;;;;;;;;13.20;91.21;-25438.16;5030120;28;20028;-83
2022/09/24 00:15:39;;;;;;;;;;;;;;;13.21;91.39;-25438.47;5015042;28;20008;-81
2022/09/24 00:18:06;;;;;;;;;;;;;;;13.24;90.86;-25439.34;4997675;28;20015;-81
2022/09/24 00:20:32;;;;;;;;;;;;;;;13.19;89.34;-25437.72;4982237;28;19953;-80
2022/09/24 00:23:21;;;;;;;;;;;;;;;13.18;87.15;-25437.59;5006407;28;19975;-81
2022/09/24 00:28:50;;;;;;;;;;;;;;;13.23;86.25;-25438.91;4934799;29;19927;-81
2022/09/24 00:31:16;;;;;;;;;;;;;;;13.28;86.71;-25440.34;4974412;28;19928;-81
2022/09/24 00:33:42;;;;;;;;;;;;;;;13.19;86.31;-25437.88;4998341;28;19917;-80
2022/09/24 00:36:08;;;;;;;;;;;;;;;13.21;88.14;-25438.31;5001129;28;19929;-81
2022/09/24 00:38:33;;;;;;;;;;;;;;;13.17;90.16;-25437.28;5001383;28;20294;-82
2022/09/24 00:41:03;;;;;;;;;;;;;;;13.14;92.37;-25436.41;5000500;28;19924;-81
2022/09/24 00:43:30;;;;;;;;;;;;;;;13.13;93.92;-25436.13;4998610;28;19929;-81
2022/09/24 00:46:01;;;;;;;;;;;;;;;13.12;95.20;-25435.84;4999573;28;19989;-80
2022/09/24 00:48:26;;;;;;;;;;;;;;;13.21;93.76;-25438.47;4997183;28;19921;-79
2022/09/24 00:50:59;;;;;;;;;;;;;;;13.18;92.04;-25437.59;4994089;28;20412;-80
2022/09/24 00:53:32;;;;;;;;;;;;;;;13.16;92.19;-25436.84;4996543;28;19929;-80
2022/09/24 00:55:58;;;;;;;;;;;;;;;13.16;93.21;-25437.00;4996906;28;19922;-79
2022/09/24 00:58:38;;;;;;;;;;;;;;;13.19;92.28;-25437.88;5006456;28;19921;-82
2022/09/24 01:01:07;;;;;;;;;;;;;;;13.13;93.33;-25436.13;5014118;28;19928;-79
2022/09/24 01:03:58;;;;;;;;;;;;;;;13.13;92.32;-25436.13;4996991;28;20399;-81
2022/09/24 01:06:25;;;;;;;;;;;;;;;13.14;92.52;-25436.41;4995873;28;19929;-80
2022/09/24 01:08:53;;;;;;;;;;;;;;;13.14;92.67;-25436.41;4996708;28;19926;-80
2022/09/24 01:11:40;;;;;;;;;;;;;;;13.17;92.78;-25437.28;4997564;28;19921;-80
2022/09/24 01:14:15;;;;;;;;;;;;;;;13.14;93.54;-25436.41;4995756;28;19921;-80
2022/09/24 01:17:00;;;;;;;;;;;;;;;13.15;93.65;-25436.56;4996678;28;19921;-80
2022/09/24 01:19:44;;;;;;;;;;;;;;;13.17;92.18;-25437.16;5014118;28;19929;-80
2022/09/24 01:22:29;;;;;;;;;;;;;;;13.10;91.78;-25435.25;5015306;28;19960;-81
2022/09/24 01:25:12;;;;;;;;;;;;;;;13.13;93.03;-25435.97;5014945;28;19917;-82
2022/09/24 01:27:45;;;;;;;;;;;;;;;13.14;95.85;-25436.28;4996410;28;19968;-81
2022/09/24 01:30:11;;;;;;;;;;;;;;;13.09;95.47;-25434.97;4997105;28;19918;-80
2022/09/24 01:32:56;;;;;;;;;;;;;;;13.09;94.90;-25434.97;4996934;28;20004;-81
2022/09/24 01:35:35;;;;;;;;;;;;;;;13.12;94.12;-25435.84;4996957;28;20342;-81
2022/09/24 01:38:02;;;;;;;;;;;;;;;13.09;96.26;-25435.09;4996893;28;20433;-80
2022/09/24 01:40:29;;;;;;;;;;;;;;;13.13;96.88;-25436.13;5013835;28;19968;-80
2022/09/24 01:43:04;;;;;;;;;;;;;;;13.12;98.47;-25435.84;4997114;28;19917;-80
2022/09/24 01:45:30;;;;;;;;;;;;;;;13.08;100.00;-25434.81;4997139;28;19992;-81
2022/09/24 01:47:58;;;;;;;;;;;;;;;13.06;100.00;-25434.22;4981670;28;19933;-81
2022/09/24 01:50:27;;;;;;;;;;;;;;;13.01;100.00;-25432.63;4997792;28;20340;-81
2022/09/24 01:53:29;;;;;;;;;;;;;;;13.04;100.00;-25433.50;5016827;28;19929;-81
2022/09/24 01:56:25;;;;;;;;;;;;;;;13.08;100.00;-25434.66;5012687;28;20373;-82
2022/09/24 01:58:55;;;;;;;;;;;;;;;13.05;100.00;-25433.94;4986147;28;19922;-81
2022/09/24 02:01:28;;;;;;;;;;;;;;;13.09;100.00;-25435.09;4978917;28;19926;-82
2022/09/24 02:04:05;;;;;;;;;;;;;;;13.08;100.00;-25434.66;5001175;28;19929;-81
2022/09/24 02:06:32;;;;;;;;;;;;;;;13.09;100.00;-25434.97;4999597;28;20015;-81
2022/09/24 02:08:58;;;;;;;;;;;;;;;13.04;100.00;-25433.66;5000538;28;19925;-82
2022/09/24 02:11:24;;;;;;;;;;;;;;;13.00;100.00;-25432.31;4981007;28;20004;-82
2022/09/24 02:13:51;;;;;;;;;;;;;;;12.99;100.00;-25432.19;4998349;28;19972;-82
2022/09/24 02:16:20;;;;;;;;;;;;;;;12.97;100.00;-25431.44;5015763;28;19960;-81
2022/09/24 02:18:47;;;;;;;;;;;;;;;12.97;100.00;-25431.44;4984498;28;19921;-80
2022/09/24 02:21:15;;;;;;;;;;;;;;;12.99;100.00;-25432.19;5001240;28;20333;-83
2022/09/24 02:23:54;;;;;;;;;;;;;;;13.02;100.00;-25432.91;5019239;28;19945;-82
2022/09/24 02:26:19;;;;;;;;;;;;;;;12.98;100.00;-25431.88;4989377;28;19921;-83
2022/09/24 02:28:47;;;;;;;;;;;;;;;12.99;100.00;-25432.03;5008683;28;19929;-83
2022/09/24 02:31:19;;;;;;;;;;;;;;;13.05;100.00;-25433.78;5010850;28;19949;-84
2022/09/24 02:36:33;;;;;;;;;;;;;;;12.96;100.00;-25431.31;5029582;28;20016;-83
2022/09/24 02:39:00;;;;;;;;;;;;;;;12.96;100.00;-25431.31;5029515;28;19918;-83
2022/09/24 02:41:28;;;;;;;;;;;;;;;12.95;100.00;-25431.00;5011315;28;19925;-83
2022/09/24 02:43:56;;;;;;;;;;;;;;;12.92;100.00;-25430.28;5015801;28;20297;-83
2022/09/24 02:46:21;;;;;;;;;;;;;;;12.95;100.00;-25430.88;5032105;28;19924;-81
2022/09/24 02:48:47;;;;;;;;;;;;;;;12.95;100.00;-25430.88;5012142;28;19917;-83
2022/09/24 02:51:12;;;;;;;;;;;;;;;12.94;100.00;-25430.72;4996124;28;19921;-84
2022/09/24 02:53:38;;;;;;;;;;;;;;;12.89;100.00;-25429.25;5008995;28;19929;-83
2022/09/24 02:56:03;;;;;;;;;;;;;;;12.91;100.00;-25429.84;5014270;28;19909;-81
2022/09/24 02:58:29;;;;;;;;;;;;;;;12.94;99.25;-25430.72;5016866;28;20219;-84
2022/09/24 03:01:04;;;;;;;;;;;;;;;12.89;98.07;-25429.41;5014857;28;19921;-83
2022/09/24 03:03:30;;;;;;;;;;;;;;;12.89;98.27;-25429.41;5010829;28;19926;-81
2022/09/24 03:05:56;;;;;;;;;;;;;;;12.87;97.13;-25428.69;5007825;28;20015;-81
2022/09/24 03:08:23;;;;;;;;;;;;;;;12.95;96.54;-25431.00;5005136;28;19921;-83
2022/09/24 03:10:50;;;;;;;;;;;;;;;12.99;95.70;-25432.03;5020502;28;19965;-82
2022/09/24 03:13:18;;;;;;;;;;;;;;;13.01;94.02;-25432.63;5004055;28;19929;-81
2022/09/24 03:15:45;;;;;;;;;;;;;;;13.06;95.18;-25434.09;4990131;28;20456;-82
2022/09/24 03:18:12;;;;;;;;;;;;;;;13.07;95.73;-25434.38;5007557;28;19948;-80
2022/09/24 03:20:39;;;;;;;;;;;;;;;13.04;97.52;-25433.66;5006361;28;19976;-80
2022/09/24 03:23:13;;;;;;;;;;;;;;;13.00;100.00;-25432.47;5002627;28;19924;-80
2022/09/24 03:25:39;;;;;;;;;;;;;;;13.08;100.00;-25434.81;5018745;28;20062;-81
2022/09/24 03:28:05;;;;;;;;;;;;;;;13.14;100.00;-25436.28;5002909;28;19917;-80
2022/09/24 03:33:14;;;;;;;;;;;;;;;13.11;98.97;-25435.69;5022558;28;19936;-81
2022/09/24 03:35:41;;;;;;;;;;;;;;;13.09;99.82;-25435.09;5008679;28;19917;-82
2022/09/24 03:38:08;;;;;;;;;;;;;;;13.12;100.00;-25435.84;4986007;28;20007;-80
2022/09/24 03:40:35;;;;;;;;;;;;;;;13.11;100.00;-25435.53;4985470;28;19925;-81
2022/09/24 03:43:00;;;;;;;;;;;;;;;13.09;100.00;-25434.97;4984927;28;19925;-80
2022/09/24 03:45:25;;;;;;;;;;;;;;;13.09;100.00;-25435.09;5000248;28;19917;-81
2022/09/24 03:47:51;;;;;;;;;;;;;;;13.13;100.00;-25436.13;4985252;28;20487;-80
2022/09/24 03:50:16;;;;;;;;;;;;;;;13.08;100.00;-25434.81;4985522;28;19930;-81
2022/09/24 03:52:42;;;;;;;;;;;;;;;13.12;99.45;-25435.84;5001590;28;19956;-80
2022/09/24 03:55:07;;;;;;;;;;;;;;;13.19;99.49;-25437.72;4990782;28;19928;-80
2022/09/24 03:57:33;;;;;;;;;;;;;;;13.15;100.00;-25436.72;5003314;28;19918;-81
2022/09/24 04:00:02;;;;;;;;;;;;;;;13.22;100.00;-25438.75;5036696;28;19921;-82
2022/09/24 04:02:50;;;;;;;;;;;;;;;13.20;100.00;-25438.03;5023849;28;19925;-82
2022/09/24 04:05:16;;;;;;;;;;;;;;;13.26;100.00;-25439.91;5020376;28;19965;-82
2022/09/24 04:07:43;;;;;;;;;;;;;;;13.26;100.00;-25439.91;5021432;28;19917;-81
2022/09/24 04:10:10;;;;;;;;;;;;;;;13.27;100.00;-25440.06;5035214;28;19917;-81
2022/09/24 04:12:42;;;;;;;;;;;;;;;13.25;100.00;-25439.63;5021337;28;20615;-81
2022/09/24 04:15:08;;;;;;;;;;;;;;;13.23;100.00;-25438.91;5009997;28;19921;-80
2022/09/24 04:17:33;;;;;;;;;;;;;;;13.22;100.00;-25438.75;5010440;28;19929;-81
2022/09/24 04:20:00;;;;;;;;;;;;;;;13.24;100.00;-25439.34;5045333;28;19927;-80
2022/09/24 04:22:28;;;;;;;;;;;;;;;13.24;100.00;-25439.34;5027425;28;19956;-81
2022/09/24 04:24:56;;;;;;;;;;;;;;;13.24;100.00;-25439.34;5027206;28;19918;-80
2022/09/24 04:27:21;;;;;;;;;;;;;;;13.22;100.00;-25438.75;5023726;28;19924;-82
2022/09/24 04:29:47;;;;;;;;;;;;;;;13.26;100.00;-25439.91;5026553;28;19917;-81
2022/09/24 04:32:13;;;;;;;;;;;;;;;13.30;100.00;-25440.94;5010434;28;19987;-81
2022/09/24 04:34:39;;;;;;;;;;;;;;;13.31;100.00;-25441.22;5027836;28;19924;-80
2022/09/24 04:37:04;;;;;;;;;;;;;;;13.31;100.00;-25441.09;5009151;28;19929;-81
2022/09/24 04:39:34;;;;;;;;;;;;;;;13.35;100.00;-25442.28;5009375;28;22095;-81
2022/09/24 04:42:02;;;;;;;;;;;;;;;13.33;100.00;-25441.81;5011049;28;20018;-80
2022/09/24 04:44:32;;;;;;;;;;;;;;;13.32;100.00;-25441.53;5010223;28;19921;-83
2022/09/24 04:47:01;;;;;;;;;;;;;;;13.25;100.00;-25439.63;5018222;28;19956;-80
2022/09/24 04:49:28;;;;;;;;;;;;;;;13.18;100.00;-25437.59;5040746;28;19925;-79
2022/09/24 04:51:53;;;;;;;;;;;;;;;13.16;100.00;-25437.00;5014654;28;19925;-79
2022/09/24 04:54:28;;;;;;;;;;;;;;;13.17;100.00;-25437.28;5019826;28;20022;-78
2022/09/24 04:57:14;;;;;;;;;;;;;;;13.18;94.88;-25437.59;5016123;28;19964;-79
2022/09/24 04:59:48;;;;;;;;;;;;;;;13.25;91.17;-25439.47;5024896;28;19921;-80
2022/09/24 05:02:19;;;;;;;;;;;;;;;13.26;90.48;-25439.78;5017829;28;19925;-80
2022/09/24 05:04:45;;;;;;;;;;;;;;;13.20;90.25;-25438.16;5023105;28;19928;-79
2022/09/24 05:07:12;;;;;;;;;;;;;;;13.17;88.42;-25437.28;5024455;28;19921;-80
2022/09/24 05:09:37;;;;;;;;;;;;;;;13.13;87.80;-25435.97;5023412;28;19944;-80
2022/09/24 05:12:26;;;;;;;;;;;;;;;13.07;86.63;-25434.38;5042510;28;19921;-80
2022/09/24 05:15:13;;;;;;;;;;;;;;;13.03;82.23;-25433.22;5038108;28;20376;-80
2022/09/24 05:17:39;;;;;;;;;;;;;;;13.05;79.71;-25433.94;5006372;28;20286;-79
2022/09/24 05:20:51;;;;;;;;;;;;;;;13.01;77.66;-25432.78;5040095;28;19952;-80
2022/09/24 05:23:21;;;;;;;;;;;;;;;13.10;76.39;-25435.41;5037257;28;19921;-80
2022/09/24 05:29:12;;;;;;;;;;;;;;;13.13;75.64;-25435.97;5014961;28;19928;-80
2022/09/24 05:31:43;;;;;;;;;;;;;;;13.08;75.44;-25434.66;5017798;28;19925;-80
2022/09/24 05:34:09;;;;;;;;;;;;;;;13.06;75.13;-25434.09;5016036;28;19925;-80
2022/09/24 05:36:57;;;;;;;;;;;;;;;13.01;74.80;-25432.63;5016485;28;19921;-81
2022/09/24 05:40:46;;;;;;;;;;;;;;;13.00;74.45;-25432.47;5030584;28;20367;-81
2022/09/24 05:43:14;;;;;;;;;;;;;;;12.99;74.16;-25432.03;5023240;28;19984;-81
2022/09/24 05:46:19;;;;;;;;;;;;;;;13.02;73.70;-25433.06;5017136;28;20386;-80
2022/09/24 05:49:26;;;;;;;;;;;;;;;13.07;73.33;-25434.53;4988973;28;19965;-80
2022/09/24 05:52:34;;;;;;;;;;;;;;;13.16;73.12;-25436.84;5034216;28;19921;-81
2022/09/24 05:55:39;;;;;;;;;;;;;;;13.18;72.96;-25437.44;5013521;28;20305;-80
2022/09/24 05:58:30;;;;;;;;;;;;;;;13.16;72.87;-25437.00;5031231;28;19927;-80
2022/09/24 06:01:41;;;;;;;;;;;;;;;13.08;72.66;-25434.81;5012712;28;19948;-80
2022/09/24 06:04:53;;;;;;;;;;;;;;;13.10;72.35;-25435.25;5008145;28;19922;-80
2022/09/24 06:07:59;;;;;;;;;;;;;;;13.09;72.08;-25434.97;5011020;28;19945;-82
2022/09/24 06:11:07;;;;;;;;;;;;;;;13.06;71.98;-25434.22;5013880;28;19933;-80
2022/09/24 06:14:17;;;;;;;;;;;;;;;13.11;71.72;-25435.53;5016141;28;19921;-80
2022/09/24 06:17:26;;;;;;;;;;;;;;;13.13;71.53;-25436.13;5015380;28;20389;-79
2022/09/24 06:19:51;;;;;;;;;;;;;;;13.10;71.40;-25435.25;5015656;28;19922;-79
2022/09/24 06:22:40;;;;;;;;;;;;;;;13.06;71.28;-25434.09;5016489;28;20362;-80
2022/09/24 06:25:17;;;;;;;;;;;;;;;13.08;71.04;-25434.81;5015061;28;19968;-80
2022/09/24 06:28:06;;;;;;;;;;;;;;;13.06;71.00;-25434.22;5012558;28;20007;-79
2022/09/24 06:31:14;;;;;;;;;;;;;;;13.04;70.93;-25433.50;5014800;28;19941;-79
2022/09/24 06:34:20;;;;;;;;;;;;;;;13.00;70.92;-25432.47;5015473;28;19921;-80
2022/09/24 06:37:07;;;;;;;;;;;;;;;13.09;70.96;-25434.97;5010011;28;19921;-82
2022/09/24 06:39:44;;;;;;;;;;;;;;;13.12;70.87;-25435.84;5014901;28;19960;-82
2022/09/24 06:42:42;;;;;;;;;;;;;;;13.10;70.92;-25435.25;5014983;28;20353;-80
2022/09/24 06:45:38;;;;;;;;;;;;;;;13.09;70.97;-25434.97;5015124;28;19925;-81
2022/09/24 06:48:25;;;;;;;;;;;;;;;13.06;71.07;-25434.09;4999976;28;19922;-80
2022/09/24 06:50:57;;;;;;;;;;;;;;;13.12;71.21;-25435.84;5016871;28;19968;-80
2022/09/24 06:53:51;;;;;;;;;;;;;;;13.10;71.37;-25435.25;5015859;28;19917;-80
2022/09/24 06:56:51;;;;;;;;;;;;;;;13.08;71.76;-25434.81;5015799;28;20340;-81
2022/09/24 06:59:37;;;;;;;;;;;;;;;13.11;71.97;-25435.69;5011602;28;20258;-81
2022/09/24 07:02:04;;;;;;;;;;;;;;;13.13;72.15;-25436.13;4982589;28;19929;-80
2022/09/24 07:04:35;;;;;;;;;;;;;;;13.12;72.52;-25435.84;5017482;28;19968;-81
2022/09/24 07:07:42;;;;;;;;;;;;;;;13.12;72.99;-25435.84;5016509;28;20005;-82
2022/09/24 07:10:38;;;;;;;;;;;;;;;13.17;73.85;-25437.16;5008547;28;20039;-79
2022/09/24 07:13:14;;;;;;;;;;;;;;;13.14;74.86;-25436.41;5015901;28;19921;-78
2022/09/24 07:16:00;;;;;;;;;;;;;;;13.13;76.12;-25436.13;5016858;28;20272;-82
2022/09/24 07:18:59;;;;;;;;;;;;;;;13.04;78.24;-25433.66;5001574;28;20509;-83
2022/09/24 07:21:29;;;;;;;;;;;;;;;13.08;80.49;-25434.81;5018095;28;19918;-83
2022/09/24 07:24:05;;;;;;;;;;;;;;;13.05;81.76;-25433.78;5016210;28;20488;-85
2022/09/24 07:26:41;;;;;;;;;;;;;;;13.00;83.58;-25432.31;5016527;28;19921;-86
2022/09/24 07:29:15;;;;;;;;;;;;;;;13.04;84.76;-25433.50;5015869;28;19927;-84
2022/09/24 07:32:04;;;;;;;;;;;;;;;12.99;86.22;-25432.03;5000724;28;20289;-82
2022/09/24 07:34:30;;;;;;;;;;;;;;;12.98;86.88;-25431.88;5016871;28;20016;-80
2022/09/24 07:36:56;;;;;;;;;;;;;;;12.95;87.22;-25431.00;5001394;28;19921;-82
2022/09/24 07:39:27;;;;;;;;;;;;;;;12.97;89.10;-25431.59;4982913;28;19968;-82
2022/09/24 07:42:14;;;;;;;;;;;;;;;12.97;91.35;-25431.44;4982046;28;20345;-82
2022/09/24 07:44:51;;;;;;;;;;;;;;;12.97;92.67;-25431.59;4999083;28;19960;-79
2022/09/24 07:47:22;;;;;;;;;;;;;;;12.93;95.04;-25430.56;4998613;28;19932;-80
2022/09/24 07:50:17;;;;;;;;;;;;;;;12.97;95.64;-25431.44;5014268;28;19917;-78
2022/09/24 07:52:57;;;;;;;;;;;;;;;12.95;95.74;-25430.88;5015600;28;19917;-82
2022/09/24 07:55:24;;;;;;;;;;;;;;;12.86;95.41;-25428.53;5016209;28;19915;-82
2022/09/24 07:58:10;;;;;;;;;;;;;;;12.83;95.04;-25427.66;4998725;28;19918;-80
2022/09/24 08:00:35;;;;;;;;;;;;;;;12.86;94.25;-25428.53;5017629;28;19928;-79
2022/09/24 08:03:03;;;;;;;;;;;;;;;12.87;93.39;-25428.69;5017258;28;19925;-80
2022/09/24 08:05:32;;;;;;;;;;;;;;;12.88;92.10;-25428.97;5016887;28;20013;-79
2022/09/24 08:08:06;;;;;;;;;;;;;;;12.93;92.70;-25430.56;5034680;28;19917;-79
2022/09/24 08:10:34;;;;;;;;;;;;;;;12.96;95.24;-25431.16;5017268;28;20366;-80
2022/09/24 08:13:03;;;;;;;;;;;;;;;13.03;97.48;-25433.22;5001612;28;19921;-82
2022/09/24 08:15:29;;;;;;;;;;;;;;;13.05;99.25;-25433.78;5000295;28;20020;-82
2022/09/24 08:17:59;;;;;;;;;;;;;;;13.04;100.00;-25433.50;4999945;28;19925;-80
2022/09/24 08:20:24;;;;;;;;;;;;;;;13.02;100.00;-25432.91;5017234;28;19932;-80
2022/09/24 08:23:01;;;;;;;;;;;;;;;13.04;100.00;-25433.66;5017556;28;20374;-81
2022/09/24 08:25:35;;;;;;;;;;;;;;;13.02;100.00;-25432.91;5032536;28;19917;-81
2022/09/24 08:28:03;;;;;;;;;;;;;;;13.07;100.00;-25434.38;5034031;28;19917;-82
2022/09/24 08:30:49;;;;;;;;;;;;;;;13.08;100.00;-25434.66;5014862;28;19925;-82
2022/09/24 08:33:20;;;;;;;;;;;;;;;13.09;100.00;-25435.09;5026717;28;19993;-86
2022/09/24 08:36:14;;;;;;;;;;;;;;;13.10;100.00;-25435.25;5036485;28;19925;-83
2022/09/24 08:39:05;;;;;;;;;;;;;;;13.10;100.00;-25435.25;5034267;28;19948;-81
2022/09/24 08:42:15;;;;;;;;;;;;;;;13.17;100.00;-25437.28;5033506;28;19913;-80
2022/09/24 08:48:20;;;;;;;;;;;;;;;13.18;100.00;-25437.59;5033119;28;20285;-79
2022/09/24 08:51:00;;;;;;;;;;;;;;;13.19;100.00;-25437.72;5008264;28;19925;-79
2022/09/24 08:53:42;;;;;;;;;;;;;;;13.18;100.00;-25437.44;5002670;28;19925;-79
2022/09/24 08:56:36;;;;;;;;;;;;;;;13.16;100.00;-25436.84;5033704;28;19917;-82
2022/09/24 09:41:22;;;;;;;;;;;;;;;13.33;100.00;-25441.69;4942793;29;19947;-83
2022/09/24 09:44:25;;;;;;;;;;;;;;;13.34;100.00;-25441.97;4943536;29;19929;-80
2022/09/24 09:47:31;;;;;;;;;;;;;;;13.41;100.00;-25444.16;4943442;28;19919;-83
2022/09/24 09:50:17;;;;;;;;;;;;;;;13.51;100.00;-25446.78;4960016;28;19918;-83
2022/09/24 09:52:42;;;;;;;;;;;;;;;13.49;100.00;-25446.34;4942705;29;19919;-80
2022/09/24 09:55:40;;;;;;;;;;;;;;;13.49;100.00;-25446.22;4980911;28;19925;-82
2022/09/24 09:58:29;;;;;;;;;;;;;;;13.43;100.00;-25444.75;5003065;28;19918;-82
2022/09/24 10:01:11;;;;;;;;;;;;;;;13.46;100.00;-25445.47;5000070;28;19961;-81
2022/09/24 10:03:43;;;;;;;;;;;;;;;13.53;100.00;-25447.53;5009082;28;19941;-78
2022/09/24 10:06:15;;;;;;;;;;;;;;;13.54;100.00;-25447.66;5018937;28;19925;-78
2022/09/24 10:09:22;;;;;;;;;;;;;;;13.50;100.00;-25446.66;5020438;28;19918;-79
2022/09/24 10:11:55;;;;;;;;;;;;;;;13.54;100.00;-25447.66;5004431;28;19917;-80
2022/09/24 10:14:24;;;;;;;;;;;;;;;13.52;100.00;-25447.22;4996251;28;19925;-80
2022/09/24 10:17:28;;;;;;;;;;;;;;;13.56;100.00;-25448.38;5021171;28;20374;-83
2022/09/24 10:20:02;;;;;;;;;;;;;;;13.48;100.00;-25445.91;5030103;28;19995;-79
2022/09/24 10:22:34;;;;;;;;;;;;;;;13.37;100.00;-25443.00;5020277;28;20282;-78
2022/09/24 10:25:05;;;;;;;;;;;;;;;13.42;100.00;-25444.47;5002965;28;19917;-79
2022/09/24 10:30:32;;;;;;;;;;;;;;;13.31;100.00;-25441.09;5015599;28;19918;-79
2022/09/24 10:31:11;;;;;;;;;;;;;;;13.26;100.00;-25439.91;5020316;28;19954;-78
2022/09/24 10:34:03;;;;;;;;;;;;;;;13.21;100.00;-25438.31;5028278;28;20664;-81
2022/09/24 10:36:50;;;;;;;;;;;;;;;13.25;100.00;-25439.47;5021664;28;19917;-81
2022/09/24 10:39:47;;;;;;;;;;;;;;;13.20;100.00;-25438.16;5009157;28;20010;-81
2022/09/24 10:42:59;;;;;;;;;;;;;;;13.22;100.00;-25438.59;5035003;28;19956;-80
2022/09/24 10:46:03;;;;;;;;;;;;;;;13.23;100.00;-25439.03;5032762;28;20504;-81
2022/09/24 10:48:38;;;;;;;;;;;;;;;13.10;100.00;-25435.25;5019734;28;19917;-79
2022/09/24 10:51:36;;;;;;;;;;;;;;;13.08;100.00;-25434.66;5021929;28;19921;-80
2022/09/24 10:54:25;;;;;;;;;;;;;;;13.13;100.00;-25435.97;5035791;28;20296;-80
2022/09/24 10:57:34;;;;;;;;;;;;;;;13.10;100.00;-25435.25;5036800;28;20373;-79
2022/09/24 11:00:09;;;;;;;;;;;;;;;13.13;100.00;-25436.13;5036953;28;19918;-77
2022/09/24 11:02:39;;;;;;;;;;;;;;;13.13;100.00;-25436.13;5019722;28;19917;-79
2022/09/24 11:05:11;;;;;;;;;;;;;;;13.09;100.00;-25434.97;5015272;28;19952;-79
2022/09/24 11:08:02;;;;;;;;;;;;;;;13.08;100.00;-25434.81;5016249;28;19953;-82
2022/09/24 11:11:14;;;;;;;;;;;;;;;13.09;100.00;-25435.09;4975361;28;20027;-79
2022/09/24 11:14:11;;;;;;;;;;;;;;;13.15;100.00;-25436.56;4938403;29;19918;-78
2022/09/24 11:17:19;;;;;;;;;;;;;;;13.17;100.00;-25437.28;4936147;29;20022;-77
2022/09/24 11:20:04;;;;;;;;;;;;;;;13.28;100.00;-25440.50;4978150;28;20012;-79
2022/09/24 11:23:09;;;;;;;;;;;;;;;13.27;100.00;-25440.06;4992621;28;19929;-80
2022/09/24 11:26:06;;;;;;;;;;;;;;;13.27;100.00;-25440.06;4993988;28;19914;-80
2022/09/24 11:28:55;;;;;;;;;;;;;;;13.34;100.00;-25441.97;4994959;28;19918;-80
2022/09/24 11:32:07;;;;;;;;;;;;;;;13.38;100.00;-25443.16;4993951;28;19992;-79
2022/09/24 11:35:19;;;;;;;;;;;;;;;13.39;100.00;-25443.44;4980662;28;19918;-78
2022/09/24 11:38:07;;;;;;;;;;;;;;;13.54;100.00;-25447.66;4975648;28;19921;-80
2022/09/24 11:40:59;;;;;;;;;;;;;;;13.52;100.00;-25447.22;4995793;28;19918;-82
2022/09/24 11:44:00;;;;;;;;;;;;;;;13.61;100.00;-25449.84;4998864;28;19918;-78
2022/09/24 11:46:46;;;;;;;;;;;;;;;13.63;100.00;-25450.28;4996644;28;19928;-81
2022/09/24 11:49:32;;;;;;;;;;;;;;;13.58;100.00;-25448.84;5012242;28;19956;-83
2022/09/24 11:52:14;;;;;;;;;;;;;;;13.55;100.00;-25447.94;4997945;28;20647;-78
2022/09/24 11:55:24;;;;;;;;;;;;;;;13.51;100.00;-25446.94;5015753;28;20413;-80
2022/09/24 11:58:14;;;;;;;;;;;;;;;13.51;100.00;-25446.94;4995377;28;19926;-79
2022/09/24 12:01:02;;;;;;;;;;;;;;;13.41;100.00;-25444.03;4998102;28;19972;-79
2022/09/24 12:04:06;;;;;;;;;;;;;;;13.34;100.00;-25441.97;5015062;28;19921;-79
2022/09/24 12:06:54;;;;;;;;;;;;;;;13.32;100.00;-25441.53;4999253;28;20033;-79
2022/09/24 12:09:28;;;;;;;;;;;;;;;13.25;100.00;-25439.47;4998764;28;19918;-78
2022/09/24 12:12:19;;;;;;;;;;;;;;;13.29;100.00;-25440.66;4998815;28;19940;-81
2022/09/24 12:14:49;;;;;;;;;;;;;;;13.16;100.00;-25436.84;4998605;28;19929;-79
2022/09/24 12:17:21;;;;;;;;;;;;;;;13.07;100.00;-25434.53;4997997;28;19928;-79
2022/09/24 12:19:55;;;;;;;;;;;;;;;13.00;100.00;-25432.47;4993628;28;19914;-78
2022/09/24 12:22:21;;;;;;;;;;;;;;;13.06;100.00;-25434.22;4997562;28;19917;-78
2022/09/24 12:24:50;;;;;;;;;;;;;;;13.05;100.00;-25433.94;4996343;28;19976;-78
2022/09/24 12:27:18;;;;;;;;;;;;;;;13.01;100.00;-25432.78;4997179;28;20401;-78
2022/09/24 12:32:58;;;;;;;;;;;;;;;12.99;100.00;-25432.03;5014846;28;19983;-79
2022/09/24 12:35:32;;;;;;;;;;;;;;;12.94;100.00;-25430.72;4985931;28;20467;-78
2022/09/24 12:38:02;;;;;;;;;;;;;;;12.92;100.00;-25430.28;4978926;28;19940;-78
2022/09/24 12:40:36;;;;;;;;;;;;;;;12.98;100.00;-25431.75;4963176;28;19922;-80
2022/09/24 12:43:09;;;;;;;;;;;;;;;12.98;100.00;-25431.88;4998446;28;19917;-77
2022/09/24 12:45:36;;;;;;;;;;;;;;;13.04;100.00;-25433.50;4997641;28;19933;-78
2022/09/24 12:48:02;;;;;;;;;;;;;;;13.16;100.00;-25437.00;4967554;28;19979;-78
2022/09/24 12:50:39;;;;;;;;;;;;;;;13.26;100.00;-25439.78;5016310;28;20463;-80
2022/09/24 12:53:23;;;;;;;;;;;;;;;13.33;100.00;-25441.69;4998121;28;19921;-78
2022/09/24 12:55:49;;;;;;;;;;;;;;;13.43;100.00;-25444.75;5005985;28;19921;-81
2022/09/24 12:58:27;;;;;;;;;;;;;;;13.52;100.00;-25447.22;5015900;28;19921;-78
2022/09/24 13:01:06;;;;;;;;;;;;;;;13.64;100.00;-25450.72;4979864;28;19921;-82
2022/09/24 13:03:39;;;;;;;;;;;;;;;13.68;100.00;-25451.59;4985805;28;19918;-80
2022/09/24 13:06:20;;;;;;;;;;;;;;;13.63;100.00;-25450.44;5017497;28;19940;-79
2022/09/24 13:08:57;;;;;;;;;;;;;;;13.69;100.00;-25452.03;5017190;28;19925;-79
2022/09/24 13:11:28;;;;;;;;;;;;;;;13.81;100.00;-25455.41;5033791;28;19917;-78
2022/09/24 13:14:05;;;;;;;;;;;;;;;13.91;100.00;-25458.16;5033440;28;19924;-83
2022/09/24 13:16:37;;;;;;;;;;;;;;;13.95;100.00;-25459.34;5038049;28;20037;-78
2022/09/24 13:19:04;;;;;;;;;;;;;;;14.00;100.00;-25460.94;5020707;28;19923;-78
2022/09/24 13:21:30;;;;;;;;;;;;;;;14.06;100.00;-25462.41;5038994;28;19979;-80
2022/09/24 13:23:57;;;;;;;;;;;;;;;14.11;100.00;-25463.84;5023127;28;19909;-79
2022/09/24 13:26:23;;;;;;;;;;;;;;;14.16;100.00;-25465.47;5039647;28;19924;-79
2022/09/24 13:28:54;;;;;;;;;;;;;;;14.14;100.00;-25464.72;5037848;28;19917;-82
2022/09/24 13:31:39;;;;;;;;;;;;;;;14.15;100.00;-25465.03;5018468;28;19917;-83
2022/09/24 13:34:06;;;;;;;;;;;;;;;14.24;100.00;-25467.66;5023752;28;19928;-81
2022/09/24 13:36:43;;;;;;;;;;;;;;;14.26;100.00;-25468.09;5042147;28;19917;-82
2022/09/24 13:39:27;;;;;;;;;;;;;;;14.24;100.00;-25467.66;5016514;28;19921;-80
2022/09/24 13:42:06;;;;;;;;;;;;;;;14.25;100.00;-25467.94;5038060;28;20008;-80
2022/09/24 13:44:40;;;;;;;;;;;;;;;14.27;100.00;-25468.53;5023070;28;19944;-80
2022/09/24 13:47:24;;;;;;;;;;;;;;;14.29;100.00;-25469.09;5021482;28;19928;-80
2022/09/24 13:49:54;;;;;;;;;;;;;;;14.35;100.00;-25470.72;5043007;28;19917;-79
2022/09/24 13:52:24;;;;;;;;;;;;;;;14.26;100.00;-25468.22;5021945;28;19920;-79
2022/09/24 13:54:53;;;;;;;;;;;;;;;14.22;100.00;-25467.06;5036594;28;19917;-78
2022/09/24 13:57:41;;;;;;;;;;;;;;;14.12;100.00;-25464.28;5025124;28;20565;-80
2022/09/24 14:00:26;;;;;;;;;;;;;;;14.04;100.00;-25461.81;4999480;28;19917;-81
2022/09/24 14:03:10;;;;;;;;;;;;;;;14.04;100.00;-25461.97;5017434;28;19913;-80
2022/09/24 14:05:36;;;;;;;;;;;;;;;13.96;100.00;-25459.78;5001891;28;19933;-80
2022/09/24 14:08:04;;;;;;;;;;;;;;;13.96;100.00;-25459.63;4977457;28;19918;-78
2022/09/24 14:10:38;;;;;;;;;;;;;;;13.98;100.00;-25460.34;4996881;28;19925;-78
2022/09/24 14:13:28;;;;;;;;;;;;;;;13.99;100.00;-25460.66;4996375;28;19977;-78
2022/09/24 14:15:56;;;;;;;;;;;;;;;14.09;100.00;-25463.28;4996451;28;20381;-79
2022/09/24 14:18:41;;;;;;;;;;;;;;;14.07;100.00;-25462.84;4994819;28;19932;-79
2022/09/24 14:21:29;;;;;;;;;;;;;;;14.18;100.00;-25465.91;5011569;28;19917;-80
2022/09/24 14:24:25;;;;;;;;;;;;;;;14.18;100.00;-25465.91;4996424;28;19932;-79
2022/09/24 14:26:59;;;;;;;;;;;;;;;14.20;100.00;-25466.47;5016185;28;19976;-79